Nearby METAR Reports

 

KSJC - San Jose, California, USA
Distance from station: NE 9mi, 14km
Updated: Wed, 27-Jul-2016 8:53pm PDT
Mostly cloudy
Mostly cloudy
 Wind from W
Wind: W 8 mph , 13 km/h
Temperature: 70°F , 21°C
Dew Point: 55°F , 13°C
Humidity: 60%
Barometer: 29.89 inHg , 1012.2 hPa
Clouds: Mostly cloudy
Visibility: 10 miles , 16 km
Cloud details: Few Clouds 1500 ft
Partly cloudy 6500 ft
Mostly cloudy 12000 ft
2016/07/28 03:53 KSJC 280353Z 28007KT 10SM FEW015 SCT065 BKN120 21/13 A2989 RMK AO2 SLP119 FU FEW015 HZ SCT065 T02110133
KNUQ - Moffett Nas/Mtn, California, USA
Distance from station: N 9mi, 14km
Updated: Wed, 27-Jul-2016 8:56pm PDT
Clear
Clear
 Wind from NW
Wind: NW 7 mph , 11 km/h
Temperature: 64°F , 18°C
Dew Point: 55°F , 13°C
Humidity: 73%
Barometer: 29.90 inHg , 1012.5 hPa
Clouds: Clear
Visibility: 10 miles , 16 km
2016/07/28 03:56 KNUQ 280356Z 31006KT 10SM CLR 18/13 A2990 RMK AO2 SLP126 T01830133
 
KPAO - Palo Alto, California, USA
Distance from station: NNW 14mi, 23km
Updated: Wed, 27-Jul-2016 8:47pm PDT
Partly cloudy
Partly cloudy
 Wind from NW
Wind: NW 12 mph , 19 km/h
Temperature: 64°F , 18°C
Dew Point: 59°F , 15°C
Humidity: 83%
Barometer: 29.89 inHg , 1012.2 hPa
Clouds: Partly cloudy
Visibility: 10 miles , 16 km
Cloud details: Partly cloudy 20000 ft
2016/07/28 03:47 KPAO 280347Z 32010KT 10SM SCT200 18/15 A2989 RMK LAST
KRHV - San Jose/Reid, California, USA
Distance from station: ENE 12mi, 19km
Updated: Wed, 27-Jul-2016 4:57pm PDT
NOT Current
Clear
Clear
 Wind from WNW
Wind: WNW 12 mph , 19 km/h
Temperature: 95°F , 35°C
Dew Point: 54°F , 12°C
Humidity: 25%
Barometer: 29.86 inHg , 1011.2 hPa
Clouds: Clear
Visibility: 10 miles , 16 km
2016/07/27 23:57 KRHV 272357Z 30010KT 10SM SKC 35/12 A2986
 
KOAK - Oakland, California, USA
Distance from station: NNW 31mi, 50km
Updated: Wed, 27-Jul-2016 8:53pm PDT
Partly cloudy
Partly cloudy
 Wind from WNW
Wind: WNW 13 mph , 20 km/h
Temperature: 61°F , 16°C
Dew Point: 55°F , 13°C
Humidity: 83%
Barometer: 29.90 inHg , 1012.5 hPa
Clouds: Partly cloudy
Visibility: 10 miles , 16 km
Cloud details: Few Clouds 500 ft
Partly cloudy 20000 ft
2016/07/28 03:53 KOAK 280353Z 30011KT 10SM FEW005 SCT200 16/13 A2990 RMK AO2 SLP122 T01560128
KSQL - San Carlos Airpo, California, USA
Distance from station: NW 21mi, 34km
Updated: Wed, 27-Jul-2016 9:35pm PDT
Clear
Clear
 Wind from N
Wind: N 5 mph , 7 km/h
Temperature: 63°F , 17°C
Dew Point: 54°F , 12°C
Humidity: 73%
Barometer: 29.91 inHg , 1012.9 hPa
Clouds: Clear
Visibility: 10 miles , 16 km
2016/07/28 04:35 KSQL 280435Z AUTO 35004KT 10SM CLR 17/12 A2991 RMK AO2
 
KSFO - San Francisco, California, USA
Distance from station: NW 30mi, 49km
Updated: Wed, 27-Jul-2016 8:56pm PDT
Few Clouds
Few Clouds
 Wind from WNW
Wind: WNW 18 mph , 30 km/h
Temperature: 55°F , 13°C
Dew Point: 52°F , 11°C
Humidity: 88%
Barometer: 29.89 inHg , 1012.2 hPa
Clouds: Few Clouds
Visibility: 10 miles , 16 km
Cloud details: Few Clouds 500 ft
2016/07/28 03:56 KSFO 280356Z 30016KT 10SM FEW005 13/11 A2989 RMK AO2 SLP121 T01330106
KE16 - San Martin, California, USA
Distance from station: ESE 27mi, 43km
Updated: Wed, 27-Jul-2016 9:35pm PDT
Overcast
Overcast
 Wind from SE
Wind: SE 6 mph , 9 km/h
Temperature: 64°F , 18°C
Dew Point: 52°F , 11°C
Humidity: 64%
Barometer: 29.93 inHg , 1013.5 hPa
Clouds: Overcast
Visibility: 10 miles , 16 km
Cloud details: Overcast 3100 ft
2016/07/28 04:35 KE16 280435Z AUTO 13005KT 10SM OVC031 18/11 A2993 RMK AO2
 
KWVI - Watsonville, California, USA
Distance from station: SSE 27mi, 44km
Updated: Wed, 27-Jul-2016 9:36pm PDT
Partly cloudy
Partly cloudy
 Wind from S
Wind: S 3 mph , 6 km/h
Temperature: 54°F , 12°C
Dew Point: 52°F , 11°C
Humidity: 94%
Barometer: 29.94 inHg , 1013.9 hPa
Clouds: Partly cloudy
Visibility: 8 miles , 13 km
Cloud details: Partly cloudy 300 ft
2016/07/28 04:36 KWVI 280436Z AUTO 19003KT 8SM SCT003 12/11 A2994 RMK AO2 T01170111 $
KHAF - Half Moon Bay, California, USA
Distance from station: WNW 31mi, 50km
Updated: Wed, 20-Jul-2016 9:00am PDT
NOT Current
Overcast
Overcast
 Wind from NNW
Wind: NNW 8 mph , 13 km/h
Temperature: 55°F , 13°C
Dew Point: 55°F , 13°C
Humidity: 100%
Barometer: 30.12 inHg , 1020 hPa
Clouds: Overcast
Visibility: 8 miles , 13 km
Cloud details: Overcast 600 ft
2016/07/20 16:00 KHAF 201600Z AUTO 33007KT 8SM OVC006 13/13 A3012 RMK AO2
 
KHWD - Hayward, California, USA
Distance from station: N 28mi, 44km
Updated: Wed, 27-Jul-2016 8:54pm PDT
Clear
Clear
 Wind from WNW
Wind: WNW 7 mph , 11 km/h
Temperature: 63°F , 17°C
Dew Point: 52°F , 11°C
Humidity: 68%
Barometer: 29.89 inHg , 1012.2 hPa
Clouds: Clear
Visibility: 10 miles , 16 km
2016/07/28 03:54 KHWD 280354Z 29006KT 10SM CLR 17/11 A2989 RMK AO2 SLP129 T01720111 $
KLVK - Livermore, California, USA
Distance from station: NNE 31mi, 51km
Updated: Wed, 27-Jul-2016 8:53pm PDT
Clear
Clear
 Wind from WNW
Wind: WNW 10 mph , 17 km/h
Temperature: 82°F , 28°C
Dew Point: 45°F , 7°C
Humidity: 26%
Barometer: 29.85 inHg , 1010.8 hPa
Clouds: Clear
Visibility: 10 miles , 16 km
2016/07/28 03:53 KLVK 280353Z 29009KT 10SM CLR 28/07 A2985 RMK AO2 SLP104 T02830072